Time;durP1;ratioP1;P1;durP2;ratioP2;P2;SDS_P1;SDS_P2;PMS_P1;PMS_P2;Temp;Humidity;BMP_temperature;BMP_pressure;BME280_temperature;BME280_humidity;BME280_pressure;Samples;Min_cycle;Max_cycle;Signal;HPM_P1;HPM_P2
2023/10/31 00:01:55;;;;;;;19.40;10.50;;;;;;;11.78;68.82;99143.88;107405;1253;66522;-37
2023/10/31 00:04:23;;;;;;;20.10;10.20;;;;;;;11.74;68.82;99142.29;107381;1253;72676;-37
2023/10/31 00:06:50;;;;;;;23.30;11.20;;;;;;;11.70;68.93;99140.59;107361;1253;60339;-37
2023/10/31 00:09:18;;;;;;;19.10;10.70;;;;;;;11.66;68.83;99137.77;107392;1253;60456;-37
2023/10/31 00:11:45;;;;;;;20.80;10.10;;;;;;;11.63;68.79;99140.27;107271;1253;72593;-37
2023/10/31 00:14:13;;;;;;;26.40;11.20;;;;;;;11.64;68.65;99136.11;107341;1253;66339;-37
2023/10/31 00:16:58;;;;;;;22.80;10.90;;;;;;;11.68;68.69;99130.33;107280;1254;72735;-38
2023/10/31 00:19:26;;;;;;;22.90;10.50;;;;;;;11.67;68.70;99128.52;107379;1255;60079;-37
2023/10/31 00:21:54;;;;;;;22.30;11.00;;;;;;;11.66;68.75;99122.17;107313;1254;60403;-37
2023/10/31 00:24:21;;;;;;;20.70;12.60;;;;;;;11.65;68.79;99116.89;107286;1254;72598;-37
2023/10/31 00:26:49;;;;;;;26.80;11.70;;;;;;;11.64;68.77;99114.22;107266;1254;67091;-37
2023/10/31 00:29:17;;;;;;;33.00;11.60;;;;;;;11.60;68.67;99118.84;107219;1253;71453;-37
2023/10/31 00:31:45;;;;;;;20.60;10.60;;;;;;;11.58;68.70;99116.33;107313;1253;59605;-37
2023/10/31 00:34:12;;;;;;;19.10;9.70;;;;;;;11.61;68.54;99117.22;107304;1254;60289;-37
2023/10/31 00:36:40;;;;;;;22.00;10.70;;;;;;;11.65;68.57;99113.00;107328;1253;73967;-37
2023/10/31 00:39:07;;;;;;;21.00;11.10;;;;;;;11.64;68.42;99117.17;107373;1253;66617;-37
2023/10/31 00:41:35;;;;;;;22.30;10.80;;;;;;;11.61;68.52;99118.00;107296;1257;72737;-37
2023/10/31 00:44:03;;;;;;;24.80;11.00;;;;;;;11.60;68.57;99118.08;107370;1253;60409;-37
2023/10/31 00:46:30;;;;;;;20.40;10.90;;;;;;;11.59;68.59;99116.51;107333;1253;60428;-37
2023/10/31 00:48:58;;;;;;;22.30;10.60;;;;;;;11.58;68.57;99116.56;107357;1253;73883;-37
2023/10/31 00:51:26;;;;;;;20.80;10.80;;;;;;;11.54;68.44;99116.30;107367;1259;66447;-37
2023/10/31 00:53:53;;;;;;;21.30;9.90;;;;;;;11.50;68.57;99114.55;107339;1253;72671;-37
2023/10/31 00:56:22;;;;;;;23.90;9.90;;;;;;;11.52;68.80;99116.95;107327;1253;60449;-37
2023/10/31 00:58:51;;;;;;;17.30;10.00;;;;;;;11.55;68.61;99117.31;107346;1253;60131;-37
2023/10/31 01:01:19;;;;;;;20.00;10.40;;;;;;;11.54;68.71;99113.58;107351;1253;72596;-37
2023/10/31 01:03:47;;;;;;;21.50;10.40;;;;;;;11.52;68.77;99110.60;107475;1254;67908;-37
2023/10/31 01:06:14;;;;;;;19.90;10.50;;;;;;;11.50;68.82;99112.07;107361;1257;72775;-37
2023/10/31 01:08:42;;;;;;;21.50;10.60;;;;;;;11.47;68.82;99114.67;107359;1254;60463;-38
2023/10/31 01:11:09;;;;;;;20.80;11.10;;;;;;;11.43;68.99;99117.80;107310;1253;60769;-37
2023/10/31 01:13:38;;;;;;;19.30;10.70;;;;;;;11.38;69.05;99115.94;107443;1255;73969;-37
2023/10/31 01:16:06;;;;;;;17.10;9.70;;;;;;;11.37;69.15;99113.70;107392;1259;66715;-37
2023/10/31 01:18:34;;;;;;;20.50;10.30;;;;;;;11.38;68.99;99115.10;107345;1257;72686;-37
2023/10/31 01:21:01;;;;;;;22.00;11.50;;;;;;;11.34;69.01;99116.69;107243;1254;60385;-37
2023/10/31 01:23:29;;;;;;;21.50;10.80;;;;;;;11.29;68.96;99115.54;107335;1253;60704;-38
2023/10/31 01:25:57;;;;;;;18.40;10.50;;;;;;;11.24;69.02;99111.05;107194;1253;73081;-37
2023/10/31 01:28:25;;;;;;;22.10;11.20;;;;;;;11.19;69.18;99106.02;107273;1254;66663;-38
2023/10/31 01:30:52;;;;;;;24.70;11.00;;;;;;;11.16;69.32;99110.18;107299;1257;72665;-37
2023/10/31 01:33:20;;;;;;;21.50;10.90;;;;;;;11.12;69.41;99106.34;107301;1253;60695;-37
2023/10/31 01:35:48;;;;;;;20.60;10.70;;;;;;;11.13;69.47;99105.66;107306;1253;59420;-37
2023/10/31 01:38:16;;;;;;;23.90;10.70;;;;;;;11.17;69.32;99103.14;107263;1253;73810;-37
2023/10/31 01:40:43;;;;;;;27.10;10.80;;;;;;;11.15;69.53;99096.75;107241;1253;67636;-37
2023/10/31 01:43:11;;;;;;;18.70;11.00;;;;;;;11.11;69.57;99098.73;107204;1256;160820;-37
2023/10/31 01:47:38;;;;;;;21.50;11.00;;;;;;;11.08;69.72;99103.58;104084;1292;600366;-36
2023/10/31 01:50:06;;;;;;;21.20;11.30;;;;;;;11.05;69.54;99102.27;106602;1272;60086;-36
2023/10/31 01:52:35;;;;;;;23.50;12.10;;;;;;;11.03;69.60;99103.43;106720;1266;60123;-37
2023/10/31 01:55:04;;;;;;;23.40;11.90;;;;;;;11.00;69.68;99108.81;106887;1266;72225;-36
2023/10/31 01:57:31;;;;;;;19.70;10.80;;;;;;;11.03;69.50;99106.85;107121;1263;67979;-36
2023/10/31 01:59:59;;;;;;;23.40;11.70;;;;;;;11.08;69.33;99104.97;106909;1266;72691;-36
2023/10/31 02:02:27;;;;;;;25.40;11.50;;;;;;;11.07;69.35;99105.59;107054;1257;181006;-37
2023/10/31 02:04:55;;;;;;;21.80;11.80;;;;;;;11.05;69.43;99104.08;107033;1263;60087;-37
2023/10/31 02:07:23;;;;;;;21.40;12.10;;;;;;;11.05;69.51;99102.20;107081;1262;72306;-36
2023/10/31 02:09:51;;;;;;;21.90;11.30;;;;;;;11.05;69.50;99106.92;107305;1258;67817;-37
2023/10/31 02:12:35;;;;;;;22.60;12.20;;;;;;;11.04;69.39;99107.85;107086;1262;72697;-37
2023/10/31 02:15:04;;;;;;;23.30;11.70;;;;;;;11.01;69.42;99101.78;107209;1263;59717;-36
2023/10/31 02:17:31;;;;;;;25.40;12.30;;;;;;;11.04;69.23;99095.30;107316;1262;59471;-36
2023/10/31 02:19:59;;;;;;;22.70;12.60;;;;;;;11.08;69.29;99096.67;107281;1260;73093;-36
2023/10/31 02:22:26;;;;;;;21.40;11.80;;;;;;;11.08;69.35;99101.56;107272;1260;67871;-36
2023/10/31 02:24:55;;;;;;;23.70;12.70;;;;;;;11.07;69.25;99095.27;107069;1262;72654;-36
2023/10/31 02:27:22;;;;;;;22.60;12.70;;;;;;;11.06;69.27;99093.85;107056;1257;60106;-36
2023/10/31 02:29:50;;;;;;;23.90;12.70;;;;;;;11.03;69.25;99090.95;106915;1257;60025;-36
2023/10/31 02:32:18;;;;;;;25.90;13.10;;;;;;;10.99;69.25;99096.56;107166;1258;73476;-36
2023/10/31 02:34:45;;;;;;;25.60;13.20;;;;;;;10.93;69.38;99095.63;107117;1258;67567;-37
2023/10/31 02:37:13;;;;;;;24.10;13.30;;;;;;;10.95;69.42;99094.80;107074;1262;71649;-36
2023/10/31 02:39:41;;;;;;;25.00;13.50;;;;;;;11.00;69.30;99098.97;107121;1262;59540;-37
2023/10/31 02:42:09;;;;;;;30.90;14.20;;;;;;;10.97;69.34;99093.59;107003;1263;59591;-36
2023/10/31 02:44:37;;;;;;;32.60;15.10;;;;;;;10.95;69.51;99094.34;106977;1263;71816;-36
2023/10/31 02:47:04;;;;;;;25.90;14.60;;;;;;;10.94;69.66;99098.98;107171;1263;67990;-36
2023/10/31 02:49:32;;;;;;;25.90;14.20;;;;;;;10.93;69.65;99094.54;107222;1261;72688;-36
2023/10/31 02:52:00;;;;;;;31.90;15.30;;;;;;;10.90;69.67;99095.67;107041;1261;60414;-36
2023/10/31 02:54:27;;;;;;;27.50;13.80;;;;;;;10.88;69.84;99092.02;107102;1257;59673;-36
2023/10/31 02:56:55;;;;;;;27.00;13.80;;;;;;;10.94;69.76;99085.80;106937;1257;73103;-37
2023/10/31 02:59:22;;;;;;;25.20;14.20;;;;;;;11.00;69.56;99087.57;107138;1263;67593;-36
2023/10/31 03:01:50;;;;;;;31.70;14.60;;;;;;;10.99;69.57;99088.42;107076;1263;70492;-36
2023/10/31 03:04:18;;;;;;;25.20;14.40;;;;;;;10.97;69.60;99087.78;107234;1263;60036;-36
2023/10/31 03:06:46;;;;;;;36.60;15.30;;;;;;;10.95;69.54;99089.06;107063;1257;59263;-37
2023/10/31 03:09:13;;;;;;;30.50;15.60;;;;;;;10.88;69.58;99081.85;107220;1262;72718;-37
2023/10/31 03:11:41;;;;;;;28.30;15.80;;;;;;;10.85;69.81;99087.77;107013;1258;66673;-37
2023/10/31 03:14:08;;;;;;;29.60;14.30;;;;;;;10.80;69.77;99084.30;107155;1258;72678;-37
2023/10/31 03:16:36;;;;;;;31.00;14.70;;;;;;;10.85;69.68;99087.09;106880;1264;61756;-37
2023/10/31 03:19:04;;;;;;;30.50;14.90;;;;;;;10.91;69.70;99088.48;107126;1257;59599;-37
2023/10/31 03:21:31;;;;;;;33.00;15.10;;;;;;;10.89;69.76;99091.02;106987;1257;73071;-37
2023/10/31 03:24:01;;;;;;;27.50;15.00;;;;;;;10.86;69.73;99092.14;107020;1257;66675;-37
2023/10/31 03:26:29;;;;;;;27.80;15.60;;;;;;;10.86;69.85;99092.66;107014;1261;72752;-37
2023/10/31 03:28:57;;;;;;;29.00;15.80;;;;;;;10.86;69.80;99090.90;107182;1263;59499;-37
2023/10/31 03:31:25;;;;;;;31.10;15.70;;;;;;;10.85;69.86;99091.03;107036;1258;60006;-37
2023/10/31 03:33:53;;;;;;;32.40;16.10;;;;;;;10.83;69.87;99092.40;107010;1258;73080;-37
2023/10/31 03:36:21;;;;;;;27.80;15.20;;;;;;;10.87;69.78;99093.30;107097;1257;67588;-37
2023/10/31 03:38:49;;;;;;;28.80;16.00;;;;;;;10.91;69.69;99100.56;107173;1263;72771;-37
2023/10/31 03:41:17;;;;;;;30.10;15.10;;;;;;;10.91;69.74;99100.24;107073;1258;59756;-37
2023/10/31 03:43:45;;;;;;;31.30;16.00;;;;;;;10.88;69.67;99101.23;107231;1257;59810;-37
2023/10/31 03:46:13;;;;;;;34.00;15.40;;;;;;;10.86;69.79;99099.64;107056;1258;71874;-37
2023/10/31 03:48:41;;;;;;;31.40;16.00;;;;;;;10.84;69.63;99096.21;107228;1262;67569;-37
2023/10/31 03:51:09;;;;;;;28.20;15.60;;;;;;;10.81;69.78;99094.46;107039;1257;71084;-37
2023/10/31 03:53:37;;;;;;;27.60;14.90;;;;;;;10.79;69.84;99093.05;107076;1257;60696;-37
2023/10/31 03:56:05;;;;;;;30.60;15.40;;;;;;;10.82;69.56;99092.77;107045;1257;60158;-37
2023/10/31 03:58:33;;;;;;;27.60;15.40;;;;;;;10.85;69.59;99092.19;107133;1257;71139;-37
2023/10/31 04:01:02;;;;;;;32.30;16.30;;;;;;;10.84;69.65;99095.05;107131;1257;67910;-37
2023/10/31 04:03:30;;;;;;;33.10;15.90;;;;;;;10.83;69.77;99097.91;106918;1261;72812;-37
2023/10/31 04:05:57;;;;;;;29.10;15.70;;;;;;;10.82;69.55;99093.77;107117;1263;60286;-37
2023/10/31 04:08:25;;;;;;;31.30;16.00;;;;;;;10.78;69.50;99091.40;107027;1257;60050;-37
2023/10/31 04:10:53;;;;;;;29.20;16.30;;;;;;;10.73;69.67;99087.71;107259;1260;73083;-37
2023/10/31 04:13:21;;;;;;;34.80;15.40;;;;;;;10.72;69.72;99086.43;107199;1257;67629;-37
2023/10/31 04:15:49;;;;;;;31.70;15.20;;;;;;;10.76;69.59;99085.55;107235;1257;72668;-37
2023/10/31 04:18:16;;;;;;;27.10;15.30;;;;;;;10.80;69.62;99087.39;107208;1261;60180;-37
2023/10/31 04:20:44;;;;;;;33.50;15.50;;;;;;;10.80;69.71;99085.61;106998;1262;60055;-37
2023/10/31 04:23:12;;;;;;;32.40;16.00;;;;;;;10.80;69.67;99090.48;107053;1257;72078;-37
2023/10/31 04:25:40;;;;;;;26.90;15.10;;;;;;;10.79;69.59;99088.33;107247;1257;67580;-37
2023/10/31 04:28:08;;;;;;;31.90;15.50;;;;;;;10.78;69.57;99092.95;107101;1257;72673;-37
2023/10/31 04:30:35;;;;;;;27.30;16.20;;;;;;;10.75;69.41;99092.22;107227;1257;59624;-37
2023/10/31 04:33:03;;;;;;;32.70;17.00;;;;;;;10.73;69.41;99101.72;107203;1257;60051;-37
2023/10/31 04:35:31;;;;;;;32.20;15.30;;;;;;;10.70;69.42;99101.05;107041;1264;73028;-37
2023/10/31 04:37:58;;;;;;;31.00;15.60;;;;;;;10.74;69.27;99105.06;107489;1254;67888;-37
2023/10/31 04:40:26;;;;;;;31.20;14.80;;;;;;;10.78;69.29;99104.20;107488;1258;71387;-37
2023/10/31 04:42:54;;;;;;;30.50;16.10;;;;;;;10.79;69.42;99101.42;107499;1254;59605;-37
2023/10/31 04:45:22;;;;;;;32.70;16.50;;;;;;;10.80;69.54;99097.39;107560;1252;59205;-37
2023/10/31 04:47:49;;;;;;;28.10;16.70;;;;;;;10.82;69.46;99099.36;107579;1254;73060;-37
2023/10/31 04:50:17;;;;;;;31.40;17.10;;;;;;;10.81;69.34;99093.13;107536;1257;67869;-37
2023/10/31 04:52:45;;;;;;;34.30;16.60;;;;;;;10.78;69.17;99100.63;107371;1259;72680;-37
2023/10/31 04:55:12;;;;;;;32.00;16.70;;;;;;;10.74;69.04;99108.94;107549;1254;59686;-37
2023/10/31 04:57:46;;;;;;;31.80;15.80;;;;;;;10.71;69.34;99108.42;107385;1254;60336;-37
2023/10/31 05:00:14;;;;;;;30.90;15.60;;;;;;;10.77;69.29;99107.89;107402;1259;73123;-37
2023/10/31 05:02:41;;;;;;;27.70;15.50;;;;;;;10.82;69.29;99107.19;107427;1256;67045;-37
2023/10/31 05:05:09;;;;;;;27.50;15.90;;;;;;;10.83;69.20;99105.73;107577;1254;72737;-36
2023/10/31 05:07:37;;;;;;;31.90;17.10;;;;;;;10.83;69.21;99105.66;107487;1253;60088;-37
2023/10/31 05:10:06;;;;;;;30.10;17.10;;;;;;;10.83;69.27;99105.27;107473;1254;59593;-37
2023/10/31 05:12:34;;;;;;;33.40;16.90;;;;;;;10.85;69.28;99105.66;107481;1253;73185;-37
2023/10/31 05:15:02;;;;;;;34.70;17.30;;;;;;;10.83;69.07;99102.95;107534;1254;66344;-37
2023/10/31 05:17:30;;;;;;;30.50;16.60;;;;;;;10.81;69.08;99110.19;107556;1254;73046;-37
2023/10/31 05:19:58;;;;;;;27.50;15.60;;;;;;;10.79;69.07;99113.81;107563;1254;60791;-37
2023/10/31 05:22:26;;;;;;;30.60;16.30;;;;;;;10.84;68.94;99116.83;107610;1257;59983;-37
2023/10/31 05:24:53;;;;;;;31.90;16.10;;;;;;;10.92;68.99;99113.05;107618;1254;73018;-37
2023/10/31 05:27:21;;;;;;;29.90;16.70;;;;;;;10.95;68.99;99116.57;107669;1254;66653;-37
2023/10/31 05:29:49;;;;;;;31.20;17.10;;;;;;;10.96;68.83;99115.82;107525;1254;72721;-36
2023/10/31 05:32:16;;;;;;;31.00;16.40;;;;;;;11.00;68.85;99120.13;107660;1254;59490;-36
2023/10/31 05:34:44;;;;;;;28.00;16.70;;;;;;;11.02;68.73;99115.42;107660;1253;60024;-36
2023/10/31 05:37:12;;;;;;;34.80;17.60;;;;;;;11.03;68.55;99115.52;107546;1254;73095;-36
2023/10/31 05:39:39;;;;;;;31.80;17.20;;;;;;;11.00;68.39;99112.84;107572;1254;67721;-36
2023/10/31 05:42:07;;;;;;;34.30;15.30;;;;;;;10.97;68.48;99109.33;107571;1254;72655;-36
2023/10/31 05:44:35;;;;;;;30.00;15.90;;;;;;;11.03;68.37;99113.42;107591;1257;60369;-36
2023/10/31 05:47:03;;;;;;;30.90;17.10;;;;;;;11.12;68.60;99112.06;107634;1254;60002;-36
2023/10/31 05:49:31;;;;;;;30.60;16.50;;;;;;;11.15;68.47;99108.92;107580;1254;71855;-36
2023/10/31 05:51:58;;;;;;;35.30;16.80;;;;;;;11.17;68.38;99102.45;107604;1254;66303;-36
2023/10/31 05:54:27;;;;;;;31.00;16.20;;;;;;;11.20;68.20;99099.47;107585;1254;71753;-36
2023/10/31 05:56:55;;;;;;;27.50;16.80;;;;;;;11.23;68.18;99101.13;107496;1254;60307;-37
2023/10/31 05:59:22;;;;;;;34.10;17.90;;;;;;;11.24;68.15;99102.45;107543;1253;60411;-36
2023/10/31 06:01:50;;;;;;;28.20;16.30;;;;;;;11.25;68.14;99106.42;107519;1254;73874;-36
2023/10/31 06:04:18;;;;;;;35.50;16.50;;;;;;;11.27;68.27;99108.38;107631;1254;67692;-36
2023/10/31 06:06:45;;;;;;;27.80;16.80;;;;;;;11.34;67.72;99108.23;107589;1257;72660;-37
2023/10/31 06:09:14;;;;;;;29.40;15.50;;;;;;;11.41;67.51;99107.62;107493;1253;60406;-36
2023/10/31 06:11:42;;;;;;;29.30;16.50;;;;;;;11.43;67.46;99107.71;107612;1254;60373;-37
2023/10/31 06:14:11;;;;;;;32.50;16.30;;;;;;;11.46;67.38;99106.98;107563;1254;72876;-37
2023/10/31 06:16:42;;;;;;;31.20;16.90;;;;;;;11.49;67.42;99110.42;107561;1254;67575;-37
2023/10/31 06:19:10;;;;;;;28.50;16.10;;;;;;;11.52;67.54;99108.83;107540;1254;72668;-36
2023/10/31 06:21:37;;;;;;;30.20;16.50;;;;;;;11.55;67.64;99097.23;107591;1254;60601;-36
2023/10/31 06:24:06;;;;;;;28.20;15.80;;;;;;;11.57;67.52;99089.34;107595;1253;60475;-37
2023/10/31 06:26:33;;;;;;;27.90;15.30;;;;;;;11.57;67.55;99084.36;107617;1254;73789;-36
2023/10/31 06:29:01;;;;;;;28.70;15.70;;;;;;;11.65;67.60;99086.08;107534;1254;67531;-36
2023/10/31 06:31:48;;;;;;;28.80;15.80;;;;;;;11.75;67.24;99094.04;107508;1254;72672;-37
2023/10/31 06:34:16;;;;;;;25.10;14.70;;;;;;;11.79;67.57;99097.56;107407;1254;60562;-36
2023/10/31 06:36:44;;;;;;;27.10;15.60;;;;;;;11.84;67.51;99099.39;107531;1254;60412;-36
2023/10/31 06:39:11;;;;;;;27.60;15.90;;;;;;;11.90;67.75;99099.92;107599;1254;72630;-37
2023/10/31 06:41:39;;;;;;;26.90;15.60;;;;;;;11.95;67.64;99100.35;107452;1254;67925;-37
2023/10/31 06:44:07;;;;;;;35.20;16.10;;;;;;;11.99;67.52;99102.10;107468;1254;72653;-36
2023/10/31 06:46:34;;;;;;;28.60;16.40;;;;;;;12.02;67.41;99105.60;107618;1254;60348;-37
2023/10/31 06:49:02;;;;;;;29.40;14.90;;;;;;;12.05;67.26;99107.11;107319;1254;60274;-37
2023/10/31 06:51:30;;;;;;;27.70;15.30;;;;;;;12.14;67.12;99107.44;107424;1254;72611;-36
2023/10/31 06:53:58;;;;;;;29.90;14.60;;;;;;;12.25;66.68;99107.52;107504;1254;66510;-37
2023/10/31 06:56:28;;;;;;;28.10;14.80;;;;;;;12.30;66.07;99109.11;107520;1254;72686;-37
2023/10/31 06:58:56;;;;;;;27.40;14.80;;;;;;;12.34;65.98;99111.33;107595;1254;60284;-37
2023/10/31 07:01:24;;;;;;;28.60;14.30;;;;;;;12.37;65.34;99107.63;107584;1254;60315;-36
2023/10/31 07:03:52;;;;;;;25.40;14.70;;;;;;;12.40;65.36;99108.80;107618;1254;73856;-36
2023/10/31 07:06:21;;;;;;;26.90;14.80;;;;;;;12.43;65.40;99111.16;107500;1253;67581;-36
2023/10/31 07:08:48;;;;;;;28.60;15.00;;;;;;;12.45;65.32;99110.61;107474;1259;72685;-36
2023/10/31 07:11:16;;;;;;;28.10;15.40;;;;;;;12.48;65.09;99102.81;107588;1253;60570;-37
2023/10/31 07:13:44;;;;;;;30.80;15.60;;;;;;;12.50;65.16;99100.80;107583;1254;59760;-36
2023/10/31 07:16:12;;;;;;;32.50;15.00;;;;;;;12.53;65.09;99098.02;107482;1254;73845;-37
2023/10/31 07:18:39;;;;;;;23.40;13.50;;;;;;;12.62;64.36;99097.46;107473;1254;67572;-37
2023/10/31 07:21:07;;;;;;;30.10;15.50;;;;;;;12.69;64.04;99093.77;107510;1259;71460;-37
2023/10/31 07:23:34;;;;;;;30.10;14.60;;;;;;;12.71;63.98;99089.27;107400;1253;60316;-37
2023/10/31 07:26:05;;;;;;;29.00;14.20;;;;;;;12.74;64.12;99088.75;107467;1254;60331;-37
2023/10/31 07:28:33;;;;;;;26.20;13.70;;;;;;;12.79;64.28;99090.41;107588;1254;73927;-37
2023/10/31 07:31:00;;;;;;;26.40;14.50;;;;;;;12.85;63.95;99088.65;107569;1253;67507;-37
2023/10/31 07:33:28;;;;;;;27.10;15.10;;;;;;;12.90;63.57;99089.92;107383;1253;72676;-37
2023/10/31 07:35:55;;;;;;;31.00;13.70;;;;;;;12.94;63.25;99083.58;107487;1257;60471;-37
2023/10/31 07:38:23;;;;;;;27.30;14.70;;;;;;;12.99;63.61;99079.79;107603;1254;60402;-37
2023/10/31 07:40:50;;;;;;;25.30;14.00;;;;;;;13.05;63.88;99076.08;107525;1254;73857;-37
2023/10/31 07:43:18;;;;;;;23.70;14.10;;;;;;;13.11;63.60;99082.34;107426;1258;66334;-37
2023/10/31 07:45:46;;;;;;;27.10;14.70;;;;;;;13.16;63.48;99084.63;107418;1254;72674;-37
2023/10/31 07:48:13;;;;;;;24.10;12.60;;;;;;;13.21;63.58;99079.13;107404;1259;62206;-37
2023/10/31 07:50:41;;;;;;;24.60;13.10;;;;;;;13.32;63.26;99073.80;107466;1254;60012;-37
2023/10/31 07:53:09;;;;;;;29.60;13.90;;;;;;;13.44;62.99;99065.74;107598;1254;73978;-37
2023/10/31 07:55:37;;;;;;;28.30;13.30;;;;;;;13.49;62.50;99068.10;107520;1254;68263;-37
2023/10/31 07:58:05;;;;;;;30.90;13.60;;;;;;;13.53;62.46;99061.56;107609;1253;71133;-37
2023/10/31 08:00:34;;;;;;;24.00;12.90;;;;;;;13.59;62.09;99054.58;107594;1254;60399;-37
2023/10/31 08:03:02;;;;;;;25.90;13.10;;;;;;;13.62;61.72;99054.02;107517;1254;60354;-37
2023/10/31 08:05:30;;;;;;;26.60;13.50;;;;;;;13.66;61.53;99049.69;107607;1253;74216;-37
2023/10/31 08:07:58;;;;;;;26.00;12.90;;;;;;;13.69;61.49;99049.92;107632;1254;66340;-37
2023/10/31 08:10:26;;;;;;;24.70;12.50;;;;;;;13.73;61.41;99045.48;107600;1254;71883;-37
2023/10/31 08:12:53;;;;;;;24.40;12.10;;;;;;;13.77;61.27;99040.27;107455;1253;61185;-38
2023/10/31 08:15:21;;;;;;;25.10;12.30;;;;;;;13.83;61.18;99038.41;107669;1254;60549;-38
2023/10/31 08:17:48;;;;;;;24.40;12.70;;;;;;;13.90;60.97;99031.57;107573;1254;71593;-36
2023/10/31 08:20:16;;;;;;;22.80;11.40;;;;;;;13.97;60.73;99031.95;107584;1252;67613;-37
2023/10/31 08:22:45;;;;;;;22.10;10.80;;;;;;;14.05;61.04;99030.55;107488;1254;71518;-36
2023/10/31 08:25:13;;;;;;;18.10;10.60;;;;;;;14.16;60.85;99028.27;107524;1254;60421;-37
2023/10/31 08:27:40;;;;;;;19.30;10.40;;;;;;;14.27;60.39;99029.67;107537;1254;60543;-37
2023/10/31 08:30:09;;;;;;;17.30;10.10;;;;;;;14.39;60.28;99024.84;107374;1253;74197;-36
2023/10/31 08:32:36;;;;;;;23.90;11.00;;;;;;;14.51;59.86;99025.29;107357;1254;69673;-36
2023/10/31 08:35:04;;;;;;;19.90;10.30;;;;;;;14.61;59.19;99022.30;107398;1259;74780;-37
2023/10/31 08:37:32;;;;;;;24.60;9.90;;;;;;;14.71;59.09;99014.09;107413;1254;59353;-36
2023/10/31 08:40:03;;;;;;;21.40;9.70;;;;;;;14.81;59.39;99009.61;107402;1254;62284;-36
2023/10/31 08:42:30;;;;;;;16.60;9.70;;;;;;;14.92;58.66;99007.77;107417;1254;73830;-37
2023/10/31 08:44:58;;;;;;;18.00;9.30;;;;;;;15.01;58.16;99001.73;107514;1254;66798;-37
2023/10/31 08:47:26;;;;;;;20.00;9.60;;;;;;;15.10;57.78;98994.98;107522;1254;72716;-36
2023/10/31 08:49:53;;;;;;;20.00;9.40;;;;;;;15.22;57.64;98996.55;107485;1253;60475;-37
2023/10/31 08:52:22;;;;;;;16.90;9.50;;;;;;;15.34;57.30;98983.29;107472;1254;60276;-37
2023/10/31 08:54:50;;;;;;;20.90;8.70;;;;;;;15.46;57.37;98985.32;107521;1258;74859;-37
2023/10/31 08:57:17;;;;;;;18.60;8.60;;;;;;;15.57;57.36;98985.11;107512;1254;66085;-36
2023/10/31 08:59:45;;;;;;;19.10;8.30;;;;;;;15.68;57.12;98986.59;107460;1259;71515;-36
2023/10/31 09:02:12;;;;;;;21.80;8.20;;;;;;;15.78;56.34;98987.06;107458;1254;60501;-37
2023/10/31 09:04:40;;;;;;;14.40;8.10;;;;;;;15.90;56.30;98983.52;107485;1253;62489;-37
2023/10/31 09:07:08;;;;;;;17.00;7.80;;;;;;;16.04;56.28;98979.02;107497;1253;73856;-37
2023/10/31 09:09:35;;;;;;;16.50;7.20;;;;;;;16.21;55.19;98975.73;107474;1254;66273;-37
2023/10/31 09:12:04;;;;;;;13.30;7.10;;;;;;;16.36;54.94;98978.78;107540;1254;73361;-37
2023/10/31 09:14:31;;;;;;;14.60;6.70;;;;;;;16.52;54.21;98977.05;107638;1254;60409;-37
2023/10/31 09:16:59;;;;;;;12.40;6.50;;;;;;;16.69;53.50;98966.47;107497;1254;60392;-37
2023/10/31 09:19:27;;;;;;;16.10;6.40;;;;;;;16.89;53.40;98962.39;107498;1254;75038;-37
2023/10/31 09:21:55;;;;;;;15.00;6.70;;;;;;;17.10;52.63;98954.13;107472;1254;68907;-37
2023/10/31 09:24:23;;;;;;;14.90;6.60;;;;;;;17.30;52.03;98943.98;107530;1259;72818;-37
2023/10/31 09:26:51;;;;;;;10.80;5.80;;;;;;;17.48;51.78;98942.14;107501;1254;61007;-37
2023/10/31 09:29:19;;;;;;;16.20;5.80;;;;;;;17.65;51.57;98938.43;107502;1254;59979;-37
2023/10/31 09:31:56;;;;;;;18.10;5.90;;;;;;;17.80;50.42;98925.66;107461;1254;74206;-37
2023/10/31 09:34:24;;;;;;;12.80;5.30;;;;;;;17.91;50.52;98919.59;107469;1254;68336;-37
2023/10/31 09:36:52;;;;;;;15.50;5.60;;;;;;;18.01;49.57;98919.81;107436;1254;73062;-36
2023/10/31 09:39:20;;;;;;;11.60;5.40;;;;;;;18.11;49.45;98911.54;107377;1254;60306;-37
2023/10/31 09:41:48;;;;;;;11.30;5.60;;;;;;;18.24;49.68;98904.08;107401;1254;60954;-36
2023/10/31 09:44:20;;;;;;;14.00;5.20;;;;;;;18.40;48.88;98897.19;107442;1254;76009;-37
2023/10/31 09:46:48;;;;;;;15.20;5.00;;;;;;;18.54;49.12;98893.29;107398;1254;69920;-37
2023/10/31 09:49:16;;;;;;;12.80;4.90;;;;;;;18.69;49.38;98888.13;107609;1254;70544;-36
2023/10/31 09:51:43;;;;;;;13.50;5.20;;;;;;;18.86;48.91;98885.18;107409;1254;60345;-36
2023/10/31 09:54:13;;;;;;;10.90;4.40;;;;;;;19.02;48.09;98887.88;107365;1254;60299;-37
2023/10/31 09:56:41;;;;;;;9.20;4.80;;;;;;;19.21;47.33;98881.63;107563;1254;73106;-37
2023/10/31 09:59:09;;;;;;;8.50;4.30;;;;;;;19.41;46.21;98879.81;107495;1254;67698;-37
2023/10/31 10:01:37;;;;;;;8.70;4.20;;;;;;;19.60;46.18;98878.10;107470;1254;71473;-37
2023/10/31 10:04:05;;;;;;;9.80;4.70;;;;;;;19.77;45.52;98873.17;107505;1254;61243;-36
2023/10/31 10:06:34;;;;;;;8.90;4.90;;;;;;;19.94;45.86;98869.27;107474;1253;60287;-37
2023/10/31 10:09:06;;;;;;;10.50;4.70;;;;;;;20.13;45.27;98870.95;107583;1254;74230;-37
2023/10/31 10:11:34;;;;;;;12.60;5.10;;;;;;;20.33;45.09;98869.95;107500;1253;66900;-37
2023/10/31 10:14:02;;;;;;;11.70;5.90;;;;;;;20.51;44.00;98866.70;107528;1254;74824;-36
2023/10/31 10:16:31;;;;;;;9.60;5.90;;;;;;;20.64;43.64;98867.24;107542;1254;61083;-37
2023/10/31 10:19:16;;;;;;;10.20;5.50;;;;;;;20.77;43.81;98863.17;107567;1253;60323;-37
2023/10/31 10:21:51;;;;;;;8.70;5.10;;;;;;;20.93;43.86;98863.55;107550;1253;74231;-37
2023/10/31 10:24:19;;;;;;;13.80;4.60;;;;;;;21.07;43.03;98861.85;107512;1253;69745;-37
2023/10/31 10:26:47;;;;;;;10.90;4.30;;;;;;;21.15;42.66;98858.99;107496;1254;72832;-37
2023/10/31 10:29:15;;;;;;;7.90;4.40;;;;;;;21.20;42.53;98857.04;107505;1254;62255;-37
2023/10/31 10:31:44;;;;;;;8.60;4.20;;;;;;;21.18;41.98;98858.02;107520;1254;60744;-37
2023/10/31 10:34:16;;;;;;;10.30;4.80;;;;;;;21.11;42.30;98857.37;107515;1253;72733;-37
2023/10/31 10:36:49;;;;;;;11.00;4.80;;;;;;;21.07;42.83;98855.05;107524;1253;69778;-37
2023/10/31 10:39:21;;;;;;;10.60;4.50;;;;;;;21.07;43.03;98849.45;107440;1254;72696;-37
2023/10/31 10:41:55;;;;;;;9.50;4.20;;;;;;;21.13;43.11;98844.55;107426;1254;60747;-37
2023/10/31 10:44:35;;;;;;;11.30;4.70;;;;;;;21.24;43.52;98843.20;107417;1253;60787;-37
2023/10/31 10:47:06;;;;;;;9.00;4.10;;;;;;;21.39;43.03;98839.98;107398;1254;74255;-37
2023/10/31 10:49:35;;;;;;;8.30;4.20;;;;;;;21.52;43.19;98841.98;107456;1254;68989;-37
2023/10/31 10:52:10;;;;;;;10.00;4.90;;;;;;;21.67;43.58;98839.72;107495;1254;73551;-37
2023/10/31 10:54:44;;;;;;;13.10;4.70;;;;;;;21.82;42.63;98836.02;107476;1254;60481;-37
2023/10/31 10:57:24;;;;;;;12.20;5.00;;;;;;;21.95;43.45;98834.79;107527;1254;60413;-37
2023/10/31 10:59:53;;;;;;;;;;;;;;;22.10;42.26;98826.79;107490;1254;73860;-37
2023/10/31 11:02:21;;;;;;;10.30;5.30;;;;;;;22.19;41.95;98827.80;107491;1254;66606;-37
2023/10/31 11:04:49;;;;;;;8.80;5.20;;;;;;;22.26;41.86;98825.81;107461;1254;73297;-37
2023/10/31 11:07:17;;;;;;;9.40;4.80;;;;;;;22.34;41.92;98821.02;107506;1254;60976;-37
2023/10/31 11:09:46;;;;;;;9.40;4.70;;;;;;;22.45;42.01;98820.05;107493;1253;60523;-37
2023/10/31 11:12:15;;;;;;;9.80;5.30;;;;;;;22.62;41.79;98816.23;107467;1254;74281;-37
2023/10/31 11:14:43;;;;;;;7.50;4.60;;;;;;;22.77;42.03;98808.80;107415;1253;66849;-37
2023/10/31 11:17:25;;;;;;;9.50;4.70;;;;;;;22.90;41.55;98809.94;107345;1254;71807;-37
2023/10/31 11:19:53;;;;;;;8.90;4.60;;;;;;;23.02;41.06;98806.15;107407;1254;60426;-37